Thunder radar more information blitzortung!


Radar de pluja more information rain snow radar


Visita la nostra xarxa de llocs de meteo:

Template documentation
and downloads

And another site



Extreme low temperature From: 23-02-2018 00:00 Until: 09:59 warning for: Extreme low temperature Level: Yellow info button

Pagina Historial Weather Underground text

Diari Resum February 16, 2016 Unitats:  Mètric    Imperial   Tant
« Previous Dia
SegĂźent Dia »
Diari Setmana Mensual Anual Personalitzada
  Maxima: Minima: Media:
Temperatura: -17.8 °C -14.4 °C -11.7 °C
Punt de rosada: -17.8 °C -23.4 °C -21.9 °C
Humitat: Humidity % 22 % 26 %
Wind Speed: 0 km/h 0 km/h 9.7 km/h
RĂ fegues de vent: 0 km/h - -
Vent:- - SW
Pression baro: 0 hPa 34567.7 hPa -
Precipitacions: 0 mm    
Historical Graphs
 
 
Dades de taula per February 16, 2016
Temps Temperatura Punt de rosada Pression baro Vent Wind Speed RĂ fegues de vent Humitat Rainfall Rate (Hourly)
-17.8 °C -17.8 °C 0 hPa Calm     Humidity % 0 mm
11:28 -12.8 °C -20.6 °C 34635.4 hPa ENE 6 km/h 6.8 km/h 37 % 0 mm
11:33 -12.8 °C -20.5 °C 34635.4 hPa WNW 6 km/h 6 km/h 37 % 0 mm
11:43 -12.3 °C -20.1 °C 34635.4 hPa ESE 9 km/h 9 km/h 37 % 0 mm
11:48 -12.1 °C -19.9 °C 34635.4 hPa ENE 6 km/h 6 km/h 37 % 0 mm
11:53 -12 °C -20.1 °C 34635.4 hPa SW 3.7 km/h   36 % 0 mm
11:58 -11.9 °C -19.9 °C 34635.4 hPa SW 11.9 km/h 11.9 km/h 36 % 0 mm
12:08 -11.7 °C -20.4 °C 34635.4 hPa SW 11.9 km/h 11.9 km/h 33 % 0 mm
12:15 -11.8 °C -20.4 °C 34635.4 hPa SW 5.1 km/h 12.9 km/h 33 % 0 mm
12:20 -11.3 °C -20.3 °C 34635.4 hPa South 6 km/h 6 km/h 32 % 0 mm
12:25 -11.3 °C -20.6 °C 34635.4 hPa WSW 15 km/h 15 km/h 31 % 0 mm
12:30 -11.3 °C -20.6 °C 34635.4 hPa WSW 12.2 km/h 12.2 km/h 31 % 0 mm
12:35 -11.4 °C -20.8 °C 34601.5 hPa NW 15 km/h 15 km/h 30 % 0 mm
12:40 -11.2 °C -20.4 °C 34601.5 hPa SW 6.3 km/h 6.3 km/h 31 % 0 mm
12:45 -11.2 °C -20.4 °C 34601.5 hPa WSW 9 km/h 9 km/h 31 % 0 mm
12:51 -10.9 °C -20.4 °C 34601.5 hPa WSW 11.9 km/h 11.9 km/h 30 % 0 mm
12:56 -11 °C -20.5 °C 34601.5 hPa WSW 11.9 km/h 11.9 km/h 30 % 0 mm
13:01 -11.1 °C -21.1 °C 34601.5 hPa WSW 20.9 km/h 20.9 km/h 28 % 0 mm
13:06 -11.2 °C -21.4 °C 34601.5 hPa SW 15 km/h 15 km/h 27 % 0 mm
13:11 -11.2 °C -21.4 °C 34601.5 hPa SW 15 km/h 15 km/h 27 % 0 mm
13:16 -10.9 °C -20.9 °C 34601.5 hPa WSW 20.3 km/h 20.3 km/h 28 % 0 mm
13:21 -10.8 °C -21.1 °C 34601.5 hPa SW 20.9 km/h 20.9 km/h 27 % 0 mm
13:26 -10.8 °C -21.1 °C 34601.5 hPa West 9 km/h 9 km/h 27 % 0 mm
13:31 -10.6 °C -20.9 °C 34601.5 hPa SW 9 km/h 9 km/h 27 % 0 mm
13:36 -10.6 °C -20.9 °C 34567.7 hPa SW 9 km/h 9 km/h 27 % 0 mm
13:41 -10.6 °C -20.9 °C 34567.7 hPa SSW 15.6 km/h 15.6 km/h 27 % 0 mm
13:46 -10.8 °C -21.3 °C 34567.7 hPa SW 9 km/h 9 km/h 26 % 0 mm
13:51 -10.6 °C -20.9 °C 34601.5 hPa SSW 11.9 km/h 11.9 km/h 27 % 0 mm
13:56 -10.4 °C -21.1 °C 34601.5 hPa WSW 11.9 km/h 11.9 km/h 26 % 0 mm
14:01 -10.4 °C -20.7 °C 34601.5 hPa ESE 11.9 km/h 11.9 km/h 27 % 0 mm
14:06 -10.3 °C -20.9 °C 34601.5 hPa SW 16.1 km/h 16.1 km/h 26 % 0 mm
14:11 -10.4 °C -21 °C 34601.5 hPa ESE 4.2 km/h   26 % 0 mm
14:16 -10.4 °C -21.1 °C 34601.5 hPa ENE 6 km/h 6 km/h 26 % 0 mm
14:21 -10.3 °C -20.9 °C 34601.5 hPa WSW 11.9 km/h 11.9 km/h 26 % 0 mm
14:26 -10.6 °C -21.8 °C 34601.5 hPa SSW 17.9 km/h 17.9 km/h 24 % 0 mm
14:31 -10.6 °C -21.4 °C 34601.5 hPa SSW 12.7 km/h 12.7 km/h 25 % 0 mm
14:36 -10.6 °C -21.7 °C 34601.5 hPa WSW 14.5 km/h 14.5 km/h 24 % 0 mm
14:41 -10.5 °C -21.7 °C 34601.5 hPa SSW 11.9 km/h 11.9 km/h 24 % 0 mm
14:46 -10.1 °C -21.1 °C 34601.5 hPa NW 6 km/h 6 km/h 25 % 0 mm
14:51 -10 °C -21 °C 34601.5 hPa West 6 km/h 6 km/h 25 % 0 mm
14:56 -9.9 °C -20.9 °C 34601.5 hPa SSW 20.9 km/h 20.9 km/h 25 % 0 mm
15:01 -9.9 °C -21.2 °C 34601.5 hPa SW 17.9 km/h 17.9 km/h 24 % 0 mm
15:06 -10 °C -21 °C 34601.5 hPa SW 11.9 km/h 11.9 km/h 25 % 0 mm
15:11 -10 °C -21.3 °C 34601.5 hPa SW 17.9 km/h 17.9 km/h 24 % 0 mm
15:16 -10 °C -21.3 °C 34601.5 hPa SW 6 km/h 6 km/h 24 % 0 mm
15:21 -9.9 °C -21.2 °C 34601.5 hPa SW 19.2 km/h 19.2 km/h 24 % 0 mm
15:26 -10.1 °C -21.6 °C 34601.5 hPa SW 19.6 km/h 19.6 km/h 23 % 0 mm
15:31 -10 °C -21.3 °C 34601.5 hPa SW 22 km/h 22 km/h 24 % 0 mm
15:36 -10.1 °C -21.3 °C 34567.7 hPa SW 6.3 km/h 6.3 km/h 24 % 0 mm
15:41 -9.8 °C -21.1 °C 34567.7 hPa West 9.3 km/h 9.3 km/h 24 % 0 mm
15:46 -9.9 °C -21.5 °C 34567.7 hPa SW 15 km/h 15 km/h 23 % 0 mm
15:51 -10 °C -21.6 °C 34601.5 hPa West 17.9 km/h 17.9 km/h 23 % 0 mm
15:56 -9.9 °C -21.6 °C 34601.5 hPa WSW 15 km/h 15.3 km/h 23 % 0 mm
16:01 -9.8 °C -21.1 °C 34601.5 hPa SW 11.9 km/h 11.9 km/h 24 % 0 mm
16:06 -9.6 °C -20.9 °C 34601.5 hPa SW 11.9 km/h 11.9 km/h 24 % 0 mm
16:11 -9.8 °C -21.4 °C 34601.5 hPa SW 15 km/h 15 km/h 23 % 0 mm
16:16 -9.8 °C -21.4 °C 34601.5 hPa WSW 15 km/h 15 km/h 23 % 0 mm
16:21 -9.9 °C -21.5 °C 34601.5 hPa SW 9 km/h 9 km/h 23 % 0 mm
16:26 -9.9 °C -21.6 °C 34601.5 hPa SW 16.1 km/h 16.1 km/h 23 % 0 mm
16:31 -10 °C -21.6 °C 34601.5 hPa WNW 6.3 km/h 6.3 km/h 23 % 0 mm
16:36 -10 °C -21.6 °C 34601.5 hPa WSW 15 km/h 15 km/h 23 % 0 mm
16:41 -9.9 °C -21.6 °C 34601.5 hPa WSW 23.8 km/h 23.8 km/h 23 % 0 mm
16:46 -10 °C -21.6 °C 34601.5 hPa WSW 15.3 km/h 15.3 km/h 23 % 0 mm
16:51 -10.1 °C -21.6 °C 34601.5 hPa WSW 11.9 km/h 11.9 km/h 23 % 0 mm
17:01 -10.1 °C -21.7 °C 34601.5 hPa SW 15 km/h 15 km/h 23 % 0 mm
17:06 -10.2 °C -21.7 °C 34601.5 hPa SW 11.9 km/h 11.9 km/h 23 % 0 mm
17:16 -10.2 °C -22.1 °C 34601.5 hPa West 11.9 km/h 11.9 km/h 22 % 0 mm
17:21 -10.3 °C -22.1 °C 34601.5 hPa WSW 11.9 km/h 11.9 km/h 22 % 0 mm
17:26 -10.2 °C -21.7 °C 34601.5 hPa West 9.8 km/h 9.8 km/h 23 % 0 mm
17:31 -10.2 °C -21.7 °C 34601.5 hPa SW 9 km/h 9 km/h 23 % 0 mm
17:36 -10.3 °C -21.8 °C 34601.5 hPa WNW 11.9 km/h 11.9 km/h 23 % 0 mm
17:41 -10.4 °C -21.9 °C 34601.5 hPa WSW 9 km/h 9.3 km/h 23 % 0 mm
17:46 -10.4 °C -21.9 °C 34601.5 hPa West 9 km/h 9 km/h 23 % 0 mm
17:51 -10.5 °C -22 °C 34601.5 hPa WSW 11.9 km/h 11.9 km/h 23 % 0 mm
17:56 -10.6 °C -22.1 °C 34601.5 hPa SW 9 km/h 9 km/h 23 % 0 mm
18:06 -10.9 °C -22.3 °C 34601.5 hPa WSW 6 km/h 6 km/h 23 % 0 mm
18:11 -10.9 °C -22.4 °C 34601.5 hPa West 9 km/h 9 km/h 23 % 0 mm
18:16 -11.2 °C -22.6 °C 34601.5 hPa WSW 9 km/h 9 km/h 23 % 0 mm
18:21 -11.3 °C -22.4 °C 34601.5 hPa SSW 3.7 km/h 3.7 km/h 24 % 0 mm
18:26 -11.5 °C -22.8 °C 34601.5 hPa West 9 km/h 9 km/h 23 % 0 mm
18:31 -11.6 °C -22.6 °C 34601.5 hPa WSW 6 km/h 6 km/h 24 % 0 mm
18:36 -11.7 °C -22.7 °C 34601.5 hPa West 7.6 km/h 7.6 km/h 24 % 0 mm
18:46 -11.9 °C -22.9 °C 34601.5 hPa WSW 8.5 km/h 8.5 km/h 24 % 0 mm
18:51 -12 °C -22.9 °C 34601.5 hPa WSW 6.3 km/h 6.3 km/h 24 % 0 mm
18:56 -12.1 °C -23 °C 34601.5 hPa WSW 6 km/h 6 km/h 24 % 0 mm
19:01 -12.1 °C -23.1 °C 34601.5 hPa WSW 9 km/h 9 km/h 24 % 0 mm
19:06 -12.2 °C -22.8 °C 34601.5 hPa West 11.9 km/h 11.9 km/h 25 % 0 mm
19:11 -12.2 °C -22.9 °C 34601.5 hPa West 11.9 km/h 11.9 km/h 25 % 0 mm
19:16 -12.3 °C -22.9 °C 34601.5 hPa WSW 11.9 km/h 11.9 km/h 25 % 0 mm
19:21 -12.3 °C -22.9 °C 34601.5 hPa WSW 9.3 km/h 9.3 km/h 25 % 0 mm
19:26 -12.4 °C -23 °C 34601.5 hPa SW 11.9 km/h 11.9 km/h 25 % 0 mm
19:31 -12.4 °C -23 °C 34601.5 hPa WSW 9 km/h 9 km/h 25 % 0 mm
19:36 -12.4 °C -23.1 °C 34601.5 hPa West 14 km/h 14 km/h 25 % 0 mm
19:41 -12.4 °C -23.1 °C 34601.5 hPa WSW 6.3 km/h 6.3 km/h 25 % 0 mm
19:46 -12.5 °C -23.1 °C 34601.5 hPa WNW 9 km/h 9 km/h 25 % 0 mm
19:51 -12.6 °C -23.2 °C 34635.4 hPa SW 6 km/h 6 km/h 25 % 0 mm
19:56 -12.6 °C -22.9 °C 34635.4 hPa WSW 9 km/h 9 km/h 26 % 0 mm
20:01 -12.7 °C -22.9 °C 34635.4 hPa SW 9 km/h 9 km/h 26 % 0 mm
20:06 -12.7 °C -23 °C 34635.4 hPa Calm     26 % 0 mm
20:11 -12.8 °C -23.1 °C 34635.4 hPa ESE 3.1 km/h 3.1 km/h 26 % 0 mm
20:16 -12.9 °C -23.2 °C 34635.4 hPa ESE 3.1 km/h 3.1 km/h 26 % 0 mm
20:21 -12.9 °C -23.2 °C 34635.4 hPa East 9 km/h 9 km/h 26 % 0 mm
20:26 -12.9 °C -23.2 °C 34635.4 hPa SE 6.3 km/h 6.3 km/h 26 % 0 mm
20:31 -13 °C -23.3 °C 34635.4 hPa East 6.8 km/h 6.8 km/h 26 % 0 mm
20:41 -13.2 °C -23.2 °C 34669.3 hPa SSE 6 km/h 6 km/h 27 % 0 mm
20:46 -13.2 °C -23.2 °C 34669.3 hPa ESE 6.3 km/h 6.3 km/h 27 % 0 mm
20:51 -13.2 °C -23.2 °C 34669.3 hPa South 4.2 km/h 4.2 km/h 27 % 0 mm
20:56 -13.3 °C -23.3 °C 34669.3 hPa Calm     27 % 0 mm
21:01 -13.4 °C -23.3 °C 34669.3 hPa WSW 11.9 km/h 11.9 km/h 27 % 0 mm
21:06 -13.4 °C -23.3 °C 34669.3 hPa WSW 6 km/h 6 km/h 27 % 0 mm
21:11 -13.4 °C -23.1 °C 34669.3 hPa West 6.3 km/h   28 % 0 mm
21:16 -13.4 °C -23.1 °C 34669.3 hPa WSW 6 km/h   28 % 0 mm
21:21 -13.5 °C -23.2 °C 34635.4 hPa Calm     28 % 0 mm
21:26 -13.6 °C -23.3 °C 34635.4 hPa Calm     28 % 0 mm
21:31 -13.7 °C -23.1 °C 34635.4 hPa NNE 3.1 km/h   29 % 0 mm
21:36 -13.7 °C -23.1 °C 34669.3 hPa SSE 6 km/h 6 km/h 29 % 0 mm
21:41 -13.7 °C -23.1 °C 34669.3 hPa ENE 6 km/h 6 km/h 29 % 0 mm
21:46 -13.8 °C -22.9 °C 34669.3 hPa Calm     30 % 0 mm
21:51 -13.8 °C -23.2 °C 34669.3 hPa Calm     29 % 0 mm
21:56 -13.9 °C -23.1 °C 34669.3 hPa SSW 3.1 km/h 3.1 km/h 30 % 0 mm
22:01 -14 °C -23.1 °C 34669.3 hPa Calm     30 % 0 mm
22:06 -14.1 °C -23.2 °C 34635.4 hPa WSW 7.6 km/h 7.6 km/h 30 % 0 mm
22:11 -14 °C -23.1 °C 34635.4 hPa WSW 14 km/h 14 km/h 30 % 0 mm
22:16 -14 °C -23.1 °C 34635.4 hPa SW 9 km/h 9 km/h 30 % 0 mm
22:21 -14.1 °C -23.2 °C 34669.3 hPa WSW 11.9 km/h 11.9 km/h 30 % 0 mm
22:26 -14.2 °C -23.3 °C 34669.3 hPa WSW 6 km/h 6 km/h 30 % 0 mm
22:31 -14.2 °C -23.3 °C 34669.3 hPa WSW 9 km/h 9 km/h 30 % 0 mm
22:36 -14.2 °C -23.3 °C 34635.4 hPa WSW 11.9 km/h 11.9 km/h 30 % 0 mm
22:41 -14.1 °C -23.2 °C 34635.4 hPa WSW 6 km/h 6 km/h 30 % 0 mm
22:46 -14.2 °C -23.3 °C 34635.4 hPa West 3.1 km/h   30 % 0 mm
22:51 -14.2 °C -23.3 °C 34669.3 hPa SSE 3.1 km/h 3.1 km/h 30 % 0 mm
22:56 -14.3 °C -23.4 °C 34669.3 hPa SSW 6 km/h 6 km/h 30 % 0 mm
23:06 -14.4 °C -23.3 °C 34669.3 hPa Calm     31 % 0 mm
Meteo Sesrovires
Elogis d' Weather Underground - 3.25 mb

Guio original per  Jim McMurry - jmcmurry@mwt.net Adaptat per a la plantilla per  Wim van der Kuil - Leuven-Template.eu

Trobareu la nostra informacio del temps tambe a:

Weather Underground

AWEKAS